createdAt,value
2024-03-12T00:00:43.749Z,0.00
2024-03-12T00:01:43.728Z,0.00
2024-03-12T00:02:43.727Z,0.00
2024-03-12T00:03:44.197Z,0.00
2024-03-12T00:04:43.716Z,0.00
2024-03-12T00:05:43.762Z,0.00
2024-03-12T00:06:43.834Z,0.00
2024-03-12T00:07:43.727Z,0.00
2024-03-12T00:08:43.822Z,0.00
2024-03-12T00:09:43.797Z,0.00
2024-03-12T00:10:43.735Z,0.00
2024-03-12T00:11:43.813Z,0.00
2024-03-12T00:12:43.778Z,0.00
2024-03-12T00:13:43.785Z,0.00
2024-03-12T00:14:43.771Z,0.00
2024-03-12T00:15:43.841Z,0.00
2024-03-12T00:16:43.819Z,0.00
2024-03-12T00:17:43.920Z,0.00
2024-03-12T00:18:43.952Z,0.00
2024-03-12T00:19:43.895Z,0.00
2024-03-12T00:20:43.907Z,0.00
2024-03-12T00:21:44.036Z,0.00
2024-03-12T00:22:43.942Z,0.00
2024-03-12T00:23:43.944Z,0.00
2024-03-12T00:24:43.967Z,0.00
2024-03-12T00:25:43.955Z,0.00
2024-03-12T00:26:46.480Z,0.00
2024-03-12T00:27:44.004Z,0.00
2024-03-12T00:29:44.014Z,0.00
2024-03-12T00:30:44.103Z,0.00
2024-03-12T00:31:44.056Z,0.00
2024-03-12T00:32:44.057Z,0.00
2024-03-12T00:33:44.110Z,0.00
2024-03-12T00:34:44.844Z,0.00
2024-03-12T00:35:44.200Z,0.00
2024-03-12T00:36:44.109Z,0.00
2024-03-12T00:37:44.231Z,0.00
2024-03-12T00:38:44.132Z,0.00
2024-03-12T00:39:44.212Z,0.00
2024-03-12T00:40:44.277Z,0.00
2024-03-12T00:41:44.159Z,0.00
2024-03-12T00:42:44.182Z,0.00
2024-03-12T00:43:44.169Z,0.00
2024-03-12T00:44:44.255Z,0.00
2024-03-12T00:45:44.244Z,0.00
2024-03-12T00:46:44.191Z,0.00
2024-03-12T00:47:44.232Z,0.00
2024-03-12T00:48:44.245Z,0.00
2024-03-12T00:49:44.236Z,0.00
2024-03-12T00:50:44.345Z,0.00
2024-03-12T00:51:44.284Z,0.00
2024-03-12T00:52:44.257Z,0.00
2024-03-12T00:53:44.313Z,0.00
2024-03-12T00:54:44.290Z,0.00
2024-03-12T00:55:44.277Z,0.00
2024-03-12T00:56:44.289Z,0.00
2024-03-12T01:05:44.394Z,0.00
2024-03-12T01:08:44.448Z,0.00
2024-03-12T01:09:44.533Z,0.00
2024-03-12T01:10:44.622Z,0.00
2024-03-12T01:11:44.490Z,0.00
2024-03-12T01:12:44.539Z,0.00
2024-03-12T01:13:44.500Z,0.00
2024-03-12T01:14:44.513Z,0.00
2024-03-12T01:15:44.541Z,0.00
2024-03-12T01:16:44.540Z,0.00
2024-03-12T01:17:44.544Z,0.00
2024-03-12T01:18:44.572Z,0.00
2024-03-12T01:19:44.537Z,0.00
2024-03-12T01:20:44.554Z,0.00
2024-03-12T01:21:44.584Z,0.00
2024-03-12T01:22:44.580Z,0.00
2024-03-12T01:23:44.608Z,0.00
2024-03-12T01:24:44.674Z,0.00
2024-03-12T01:25:44.670Z,0.00
2024-03-12T01:26:44.622Z,0.00
2024-03-12T01:27:44.685Z,0.00
2024-03-12T01:32:44.727Z,0.00
2024-03-12T01:33:44.860Z,0.00
2024-03-12T01:34:44.746Z,0.00
2024-03-12T01:35:44.749Z,0.00
2024-03-12T01:36:44.864Z,0.00
2024-03-12T01:37:44.748Z,0.00
2024-03-12T01:38:44.757Z,0.00
2024-03-12T01:39:44.841Z,0.00
2024-03-12T01:40:44.809Z,0.00
2024-03-12T01:41:44.860Z,0.00
2024-03-12T01:42:44.871Z,0.00
2024-03-12T01:43:44.821Z,0.00
2024-03-12T01:44:44.829Z,0.00
2024-03-12T01:45:44.863Z,0.00
2024-03-12T01:46:44.855Z,0.00
2024-03-12T01:47:44.895Z,0.00
2024-03-12T01:48:44.908Z,0.00
2024-03-12T01:49:44.849Z,0.00
2024-03-12T01:50:44.871Z,0.00
2024-03-12T01:51:44.934Z,0.00
2024-03-12T01:52:44.893Z,0.00
2024-03-12T01:53:44.884Z,0.00
2024-03-12T01:54:44.908Z,0.00
2024-03-12T01:55:46.095Z,0.00
2024-03-12T01:56:44.914Z,0.00
2024-03-12T01:57:44.958Z,0.00
2024-03-12T01:58:44.953Z,0.00
2024-03-12T01:59:44.916Z,0.00
2024-03-12T02:00:44.958Z,0.00
2024-03-12T02:01:44.955Z,0.00
2024-03-12T02:02:44.935Z,0.00
2024-03-12T02:03:44.963Z,0.00
2024-03-12T02:04:44.958Z,0.00
2024-03-12T02:05:44.967Z,0.00
2024-03-12T02:06:44.989Z,0.00
2024-03-12T02:07:44.990Z,0.00
2024-03-12T02:08:45.020Z,0.00
2024-03-12T02:09:45.008Z,0.00
2024-03-12T02:10:45.035Z,0.00
2024-03-12T02:12:45.161Z,0.00
2024-03-12T02:13:45.151Z,0.00
2024-03-12T02:14:45.073Z,0.00
2024-03-12T02:15:45.181Z,0.00
2024-03-12T02:16:45.120Z,0.00
2024-03-12T02:17:45.150Z,0.00
2024-03-12T02:18:45.223Z,0.00
2024-03-12T02:19:45.160Z,0.00
2024-03-12T02:20:45.172Z,0.00
2024-03-12T02:21:45.224Z,0.00
2024-03-12T02:22:45.200Z,0.00
2024-03-12T02:23:45.219Z,0.00
2024-03-12T02:24:45.251Z,0.00
2024-03-12T02:25:45.238Z,0.00
2024-03-12T02:26:45.241Z,0.00
2024-03-12T02:27:45.279Z,0.00
2024-03-12T02:28:45.310Z,0.00
2024-03-12T02:29:45.314Z,0.00
2024-03-12T02:30:45.373Z,0.00
2024-03-12T02:31:45.288Z,0.00
2024-03-12T02:32:45.402Z,0.00
2024-03-12T02:33:45.411Z,0.00
2024-03-12T02:34:45.408Z,0.00
2024-03-12T02:35:45.365Z,0.00
2024-03-12T02:36:45.435Z,0.00
2024-03-12T02:37:45.522Z,0.00
2024-03-12T02:38:45.445Z,0.00
2024-03-12T02:39:45.503Z,0.00
2024-03-12T02:40:45.394Z,0.00
2024-03-12T02:41:45.436Z,0.00
2024-03-12T02:42:46.035Z,0.00
2024-03-12T02:43:45.384Z,0.00
2024-03-12T02:44:45.424Z,0.00
2024-03-12T02:45:45.536Z,0.00
2024-03-12T02:46:45.460Z,0.00
2024-03-12T02:47:45.498Z,0.00
2024-03-12T02:48:46.446Z,0.00
2024-03-12T02:49:45.478Z,0.00
2024-03-12T02:50:45.493Z,0.00
2024-03-12T02:51:45.522Z,0.00
2024-03-12T02:52:45.509Z,0.00
2024-03-12T02:53:45.512Z,0.00
2024-03-12T02:54:45.527Z,0.00
2024-03-12T02:55:45.524Z,0.00
2024-03-12T02:56:45.523Z,0.00
2024-03-12T02:57:45.657Z,0.00
2024-03-12T02:58:45.561Z,0.00
2024-03-12T02:59:45.590Z,0.00
2024-03-12T03:00:45.639Z,0.00
2024-03-12T03:01:45.672Z,0.00
2024-03-12T03:02:45.928Z,0.00
2024-03-12T03:03:45.640Z,0.00
2024-03-12T03:04:45.672Z,0.00
2024-03-12T03:05:45.701Z,0.00
2024-03-12T03:06:45.746Z,0.00
2024-03-12T03:07:45.727Z,0.00
2024-03-12T03:08:45.753Z,0.00
2024-03-12T03:09:45.846Z,0.00
2024-03-12T03:10:45.821Z,0.00
2024-03-12T03:11:45.772Z,0.00
2024-03-12T03:12:45.816Z,0.00
2024-03-12T03:13:45.829Z,0.00
2024-03-12T03:14:45.802Z,0.00
2024-03-12T03:15:45.811Z,0.00
2024-03-12T03:16:45.852Z,0.00
2024-03-12T03:17:45.940Z,0.00
2024-03-12T03:18:45.934Z,0.00
2024-03-12T03:19:45.892Z,0.00
2024-03-12T03:20:45.916Z,0.00
2024-03-12T03:21:45.947Z,0.00
2024-03-12T03:22:45.991Z,0.00
2024-03-12T03:23:45.942Z,0.00
2024-03-12T03:24:45.970Z,0.00
2024-03-12T03:25:45.953Z,0.00
2024-03-12T03:26:45.962Z,0.00
2024-03-12T03:27:46.015Z,0.00
2024-03-12T03:28:45.987Z,0.00
2024-03-12T03:29:45.995Z,0.00
2024-03-12T03:30:46.033Z,0.00
2024-03-12T03:31:45.976Z,0.00
2024-03-12T03:32:46.005Z,0.00
2024-03-12T03:33:46.052Z,0.00
2024-03-12T03:34:46.024Z,0.00
2024-03-12T03:35:46.021Z,0.00
2024-03-12T03:36:46.989Z,0.00
2024-03-12T03:37:46.019Z,0.00
2024-03-12T03:38:46.040Z,0.00
2024-03-12T03:39:46.068Z,0.00
2024-03-12T03:40:46.087Z,0.00
2024-03-12T03:41:46.064Z,0.00
2024-03-12T03:42:46.093Z,0.00
2024-03-12T03:43:46.078Z,0.00
2024-03-12T03:44:46.090Z,0.00
2024-03-12T03:45:46.140Z,0.00
2024-03-12T03:46:46.118Z,0.00
2024-03-12T03:47:46.154Z,0.00
2024-03-12T03:48:46.187Z,0.00
2024-03-12T03:49:46.238Z,0.00
2024-03-12T03:50:46.205Z,0.00
2024-03-12T03:51:46.222Z,0.00
2024-03-12T03:52:46.167Z,0.00
2024-03-12T03:53:46.221Z,0.00
2024-03-12T03:54:46.211Z,0.00
2024-03-12T03:55:46.237Z,0.00
2024-03-12T03:56:46.206Z,0.00
2024-03-12T03:57:46.304Z,0.00
2024-03-12T03:58:46.287Z,0.00
2024-03-12T03:59:46.266Z,0.00
2024-03-12T04:01:46.265Z,0.00
2024-03-12T04:02:46.640Z,0.00
2024-03-12T04:03:46.314Z,0.00
2024-03-12T04:04:46.290Z,0.00
2024-03-12T04:05:46.395Z,0.00
2024-03-12T04:06:46.374Z,0.00
2024-03-12T04:07:46.354Z,0.00
2024-03-12T04:08:46.364Z,0.00
2024-03-12T04:11:12.324Z,0.00
2024-03-12T04:12:12.359Z,0.00
2024-03-12T04:13:12.449Z,0.00
2024-03-12T04:14:12.402Z,0.00
2024-03-12T04:15:12.406Z,0.00
2024-03-12T04:16:12.488Z,0.00
2024-03-12T04:17:12.414Z,0.00
2024-03-12T04:18:12.532Z,0.00
2024-03-12T04:19:12.538Z,0.00
2024-03-12T04:20:13.041Z,0.00
2024-03-12T04:21:12.599Z,0.00
2024-03-12T04:22:12.539Z,0.00
2024-03-12T04:23:12.478Z,0.00
2024-03-12T04:24:12.567Z,0.00
2024-03-12T04:25:12.532Z,0.00
2024-03-12T04:26:12.553Z,0.00
2024-03-12T04:27:12.587Z,0.00
2024-03-12T04:28:12.742Z,0.00
2024-03-12T04:29:12.597Z,0.00
2024-03-12T04:30:12.631Z,0.00
2024-03-12T04:31:12.750Z,0.00
2024-03-12T04:32:12.658Z,0.00
2024-03-12T04:33:12.713Z,0.00
2024-03-12T04:34:12.670Z,0.00
2024-03-12T04:35:12.643Z,0.00
2024-03-12T04:36:12.652Z,0.00
2024-03-12T04:37:12.751Z,0.00
2024-03-12T04:38:16.064Z,0.00
2024-03-12T04:39:12.689Z,0.00
2024-03-12T04:40:13.178Z,0.00
2024-03-12T04:41:12.730Z,0.00
2024-03-12T04:42:12.769Z,0.00
2024-03-12T04:43:12.937Z,0.00
2024-03-12T04:44:12.784Z,0.00
2024-03-12T04:45:12.814Z,0.00
2024-03-12T04:46:12.983Z,0.00
2024-03-12T04:47:12.844Z,0.00
2024-03-12T04:48:12.998Z,0.00
2024-03-12T04:49:12.881Z,0.00
2024-03-12T04:50:12.849Z,0.00
2024-03-12T04:51:12.858Z,0.00
2024-03-12T04:52:12.952Z,0.00
2024-03-12T04:53:12.926Z,0.00
2024-03-12T04:54:12.903Z,0.00
2024-03-12T04:55:12.929Z,0.00
2024-03-12T04:56:13.021Z,0.00
2024-03-12T04:57:12.925Z,0.00
2024-03-12T04:58:12.982Z,0.00
2024-03-12T04:59:12.991Z,0.00
2024-03-12T05:00:13.000Z,0.00
2024-03-12T05:01:13.020Z,0.00
2024-03-12T05:02:12.993Z,0.00
2024-03-12T05:03:13.020Z,0.00
2024-03-12T05:04:18.546Z,0.00
2024-03-12T05:05:13.055Z,0.00
2024-03-12T05:08:13.011Z,0.00
2024-03-12T05:09:13.107Z,0.00
2024-03-12T05:10:13.254Z,0.00
2024-03-12T05:11:13.043Z,0.00
2024-03-12T05:12:13.092Z,0.00
2024-03-12T05:13:13.192Z,1.00
2024-03-12T05:14:13.094Z,1.00
2024-03-12T05:15:13.213Z,1.00
2024-03-12T05:16:13.237Z,2.00
2024-03-12T05:17:13.150Z,1.00
2024-03-12T05:18:13.233Z,2.00
2024-03-12T05:19:13.517Z,1.00
2024-03-12T05:20:13.152Z,2.00
2024-03-12T05:21:13.184Z,3.00
2024-03-12T05:22:13.231Z,4.00
2024-03-12T05:23:13.192Z,4.00
2024-03-12T05:24:13.184Z,5.00
2024-03-12T05:25:13.265Z,5.00
2024-03-12T05:26:13.211Z,7.00
2024-03-12T05:27:13.203Z,8.00
2024-03-12T05:28:13.213Z,10.00
2024-03-12T05:29:13.187Z,11.00
2024-03-12T05:30:13.205Z,12.00
2024-03-12T05:31:13.245Z,14.00
2024-03-12T05:32:13.181Z,15.00
2024-03-12T05:33:13.295Z,18.00
2024-03-12T05:34:13.318Z,22.00
2024-03-12T05:35:13.265Z,26.00
2024-03-12T05:36:13.275Z,29.00
2024-03-12T05:37:13.439Z,34.00
2024-03-12T05:38:13.510Z,38.00
2024-03-12T05:39:13.325Z,41.00
2024-03-12T05:40:13.394Z,46.00
2024-03-12T05:41:13.353Z,51.00
2024-03-12T05:42:13.317Z,51.00
2024-03-12T05:43:13.347Z,55.00
2024-03-12T05:44:13.353Z,62.00
2024-03-12T05:45:13.356Z,70.00
2024-03-12T05:46:13.432Z,74.00
2024-03-12T05:47:13.957Z,81.00
2024-03-12T05:48:13.519Z,87.00
2024-03-12T05:49:13.613Z,92.00
2024-03-12T05:50:13.459Z,98.00
2024-03-12T05:51:13.509Z,106.00
2024-03-12T05:52:13.512Z,115.00
2024-03-12T05:53:13.491Z,121.00
2024-03-12T05:54:13.479Z,125.00
2024-03-12T05:55:13.524Z,136.00
2024-03-12T05:56:16.905Z,145.00
2024-03-12T05:57:13.608Z,153.00
2024-03-12T05:58:13.726Z,161.00
2024-03-12T05:59:13.564Z,166.00
2024-03-12T06:00:13.577Z,172.00
2024-03-12T06:01:13.765Z,179.00
2024-03-12T06:02:13.714Z,186.00
2024-03-12T06:03:13.590Z,196.00
2024-03-12T06:04:13.758Z,202.00
2024-03-12T06:05:13.781Z,211.00
2024-03-12T06:06:13.622Z,222.00
2024-03-12T06:07:13.839Z,235.00
2024-03-12T06:08:13.623Z,247.00
2024-03-12T06:09:13.625Z,262.00
2024-03-12T06:10:13.714Z,284.00
2024-03-12T06:11:13.680Z,313.00
2024-03-12T06:12:13.652Z,341.00
2024-03-12T06:13:13.778Z,358.00
2024-03-12T06:14:13.686Z,371.00
2024-03-12T06:15:13.728Z,370.00
2024-03-12T06:16:13.709Z,365.00
2024-03-12T06:17:13.687Z,364.00
2024-03-12T06:19:13.753Z,350.00
2024-03-12T06:20:13.748Z,357.00
2024-03-12T06:21:13.794Z,366.00
2024-03-12T06:22:13.821Z,397.00
2024-03-12T06:23:13.805Z,420.00
2024-03-12T06:24:13.845Z,426.00
2024-03-12T06:25:14.133Z,422.00
2024-03-12T06:26:13.812Z,436.00
2024-03-12T06:27:13.832Z,454.00
2024-03-12T06:28:13.935Z,485.00
2024-03-12T06:29:13.895Z,517.00
2024-03-12T06:30:13.833Z,559.00
2024-03-12T06:31:13.973Z,580.00
2024-03-12T06:32:13.873Z,574.00
2024-03-12T06:33:13.959Z,562.00
2024-03-12T06:34:14.240Z,576.00
2024-03-12T06:35:13.884Z,631.00
2024-03-12T06:36:13.899Z,671.00
2024-03-12T06:38:13.921Z,667.00
2024-03-12T06:40:14.021Z,726.00
2024-03-12T06:41:13.934Z,735.00
2024-03-12T06:42:13.999Z,772.00
2024-03-12T06:43:14.048Z,815.00
2024-03-12T06:44:14.070Z,879.00
2024-03-12T06:45:14.096Z,892.00
2024-03-12T06:46:14.198Z,898.00
2024-03-12T06:47:14.034Z,832.00
2024-03-12T06:48:14.152Z,837.00
2024-03-12T06:49:14.126Z,788.00
2024-03-12T06:50:14.092Z,632.00
2024-03-12T06:51:14.206Z,527.00
2024-03-12T06:52:14.128Z,501.00
2024-03-12T06:53:14.185Z,548.00
2024-03-12T06:54:14.127Z,644.00
2024-03-12T06:55:16.908Z,652.00
2024-03-12T06:57:14.130Z,744.00
2024-03-12T06:58:14.195Z,916.00
2024-03-12T06:59:14.156Z,1142.00
2024-03-12T07:00:14.155Z,1213.00
2024-03-12T07:01:14.251Z,1288.00
2024-03-12T07:02:14.214Z,1403.00
2024-03-12T07:03:14.196Z,1375.00
2024-03-12T07:04:14.249Z,1378.00
2024-03-12T07:05:14.209Z,1322.00
2024-03-12T07:06:14.218Z,1251.00
2024-03-12T07:07:14.272Z,1317.00
2024-03-12T07:08:14.244Z,1436.00
2024-03-12T07:09:15.773Z,1436.00
2024-03-12T07:10:14.353Z,1404.00
2024-03-12T07:11:14.337Z,1447.00
2024-03-12T07:12:14.286Z,1516.00
2024-03-12T07:13:14.669Z,1691.00
2024-03-12T07:15:14.300Z,1863.00
2024-03-12T07:16:14.408Z,1937.00
2024-03-12T07:17:14.421Z,2061.00
2024-03-12T07:18:14.389Z,2219.00
2024-03-12T07:19:14.446Z,2156.00
2024-03-12T07:20:14.352Z,2078.00
2024-03-12T07:21:14.408Z,2110.00
2024-03-12T07:22:14.511Z,1985.00
2024-03-12T07:23:14.426Z,1896.00
2024-03-12T07:24:14.452Z,1927.00
2024-03-12T07:25:14.772Z,1986.00
2024-03-12T07:26:14.474Z,2019.00
2024-03-12T07:27:14.507Z,1935.00
2024-03-12T07:29:14.492Z,1757.00
2024-03-12T07:30:14.545Z,1568.00
2024-03-12T07:31:14.631Z,1336.00
2024-03-12T07:32:14.594Z,1142.00
2024-03-12T07:33:14.663Z,1044.00
2024-03-12T07:34:18.155Z,1118.00
2024-03-12T07:35:14.522Z,1185.00
2024-03-12T07:36:14.569Z,1184.00
2024-03-12T07:37:14.703Z,1165.00
2024-03-12T07:38:14.559Z,1212.00
2024-03-12T07:39:14.588Z,1174.00
2024-03-12T07:40:14.744Z,1045.00
2024-03-12T07:41:14.603Z,922.00
2024-03-12T07:42:15.516Z,846.00
2024-03-12T07:43:14.691Z,948.00
2024-03-12T07:44:14.624Z,1289.00
2024-03-12T07:45:15.521Z,1489.00
2024-03-12T07:46:14.688Z,1437.00
2024-03-12T07:47:14.656Z,1482.00
2024-03-12T07:48:14.683Z,1562.00
2024-03-12T07:49:14.802Z,1667.00
2024-03-12T07:50:14.812Z,1822.00
2024-03-12T07:51:14.645Z,1827.00
2024-03-12T07:52:14.860Z,1782.00
2024-03-12T07:53:14.661Z,1841.00
2024-03-12T07:54:14.650Z,1775.00
2024-03-12T07:55:14.775Z,1675.00
2024-03-12T07:56:14.775Z,1799.00
2024-03-12T07:57:16.350Z,1732.00
2024-03-12T07:58:14.830Z,1475.00
2024-03-12T07:59:14.744Z,1467.00
2024-03-12T08:00:14.740Z,1554.00
2024-03-12T08:01:14.836Z,1630.00
2024-03-12T08:02:14.768Z,1631.00
2024-03-12T08:03:14.772Z,1607.00
2024-03-12T08:04:14.820Z,1643.00
2024-03-12T08:05:14.833Z,1710.00
2024-03-12T08:07:14.960Z,1737.00
2024-03-12T08:09:14.798Z,1685.00
2024-03-12T08:10:14.962Z,1528.00
2024-03-12T08:11:14.905Z,1605.00
2024-03-12T08:12:17.675Z,1618.00
2024-03-12T08:13:14.933Z,1489.00
2024-03-12T08:14:14.887Z,1473.00
2024-03-12T08:15:14.998Z,1616.00
2024-03-12T08:16:14.995Z,1645.00
2024-03-12T08:17:14.958Z,1542.00
2024-03-12T08:18:20.694Z,1311.00
2024-03-12T08:19:15.040Z,1247.00
2024-03-12T08:21:15.015Z,1711.00
2024-03-12T08:22:15.507Z,1920.00
2024-03-12T08:23:15.099Z,2001.00
2024-03-12T08:24:15.096Z,1819.00
2024-03-12T08:25:15.836Z,1729.00
2024-03-12T08:26:15.069Z,2051.00
2024-03-12T08:27:15.080Z,1852.00
2024-03-12T08:28:15.195Z,1844.00
2024-03-12T08:30:15.108Z,2027.00
2024-03-12T08:31:23.670Z,1803.00
2024-03-12T08:32:15.365Z,1610.00
2024-03-12T08:33:15.290Z,1423.00
2024-03-12T08:34:15.307Z,1438.00
2024-03-12T08:35:15.234Z,1436.00
2024-03-12T08:36:15.196Z,1728.00
2024-03-12T08:37:15.507Z,1804.00
2024-03-12T08:38:15.214Z,1508.00
2024-03-12T08:39:15.234Z,1746.00
2024-03-12T08:40:15.487Z,2275.00
2024-03-12T08:41:15.283Z,2508.00
2024-03-12T08:42:15.300Z,2459.00
2024-03-12T08:43:15.347Z,2391.00
2024-03-12T08:44:15.390Z,2246.00
2024-03-12T08:45:15.377Z,2078.00
2024-03-12T08:46:15.398Z,1803.00
2024-03-12T08:47:15.340Z,1444.00
2024-03-12T08:48:15.381Z,1428.00
2024-03-12T08:49:15.406Z,1402.00
2024-03-12T08:50:15.655Z,1286.00
2024-03-12T08:51:15.389Z,1460.00
2024-03-12T08:52:15.527Z,2114.00
2024-03-12T08:53:16.299Z,2643.00
2024-03-12T08:54:15.690Z,2470.00
2024-03-12T08:55:15.558Z,2234.00
2024-03-12T08:56:15.459Z,2292.00
2024-03-12T08:57:15.448Z,2590.00
2024-03-12T08:58:15.506Z,2784.00
2024-03-12T08:59:15.518Z,2641.00
2024-03-12T09:01:15.635Z,1948.00
2024-03-12T09:02:15.622Z,1976.00
2024-03-12T09:03:15.575Z,2476.00
2024-03-12T09:04:15.626Z,2824.00
2024-03-12T09:05:15.580Z,2930.00
2024-03-12T09:06:15.604Z,2973.00
2024-03-12T09:07:15.645Z,2631.00
2024-03-12T09:08:15.592Z,1980.00
2024-03-12T09:09:15.813Z,1860.00
2024-03-12T09:10:15.623Z,2079.00
2024-03-12T09:12:15.667Z,2048.00
2024-03-12T09:14:15.700Z,2000.00
2024-03-12T09:15:15.738Z,2336.00
2024-03-12T09:17:15.747Z,2746.00
2024-03-12T09:18:15.763Z,2592.00
2024-03-12T09:19:15.811Z,2399.00
2024-03-12T09:20:15.789Z,2111.00
2024-03-12T09:21:15.762Z,2406.00
2024-03-12T09:22:15.861Z,3211.00
2024-03-12T09:23:15.944Z,3592.00
2024-03-12T09:24:15.792Z,2876.00
2024-03-12T09:25:19.201Z,2567.00
2024-03-12T09:26:15.801Z,3118.00
2024-03-12T09:27:15.868Z,3727.00
2024-03-12T09:28:15.902Z,4276.00
2024-03-12T09:29:15.880Z,4275.00
2024-03-12T09:30:15.894Z,3907.00
2024-03-12T09:31:16.010Z,3542.00
2024-03-12T09:33:16.014Z,3450.00
2024-03-12T09:34:16.024Z,2699.00
2024-03-12T09:35:15.993Z,1977.00
2024-03-12T09:36:16.142Z,2038.00
2024-03-12T09:37:15.961Z,1882.00
2024-03-12T09:38:15.982Z,1507.00
2024-03-12T09:39:15.963Z,1342.00
2024-03-12T09:40:16.091Z,1454.00
2024-03-12T09:41:16.044Z,1629.00
2024-03-12T09:42:16.022Z,2044.00
2024-03-12T09:43:16.088Z,2275.00
2024-03-12T09:44:15.995Z,2111.00
2024-03-12T09:45:15.955Z,2440.00
2024-03-12T09:46:16.055Z,3303.00
2024-03-12T09:47:15.991Z,3243.00
2024-03-12T09:48:16.031Z,2715.00
2024-03-12T09:49:16.053Z,2493.00
2024-03-12T09:51:16.027Z,3928.00
2024-03-12T09:52:16.083Z,3226.00
2024-03-12T09:53:16.068Z,2857.00
2024-03-12T09:54:16.025Z,3224.00
2024-03-12T09:55:16.392Z,3544.00
2024-03-12T09:56:16.086Z,3926.00
2024-03-12T09:57:16.165Z,4068.00
2024-03-12T09:58:16.188Z,3725.00
2024-03-12T09:59:16.033Z,3055.00
2024-03-12T10:00:16.062Z,2882.00
2024-03-12T10:01:16.168Z,2681.00
2024-03-12T10:02:16.587Z,2053.00
2024-03-12T10:04:16.206Z,1999.00
2024-03-12T10:05:16.128Z,1840.00
2024-03-12T10:06:16.160Z,1552.00
2024-03-12T10:07:16.255Z,1420.00
2024-03-12T10:08:16.256Z,1433.00
2024-03-12T10:09:16.156Z,1163.00
2024-03-12T10:10:16.303Z,1046.00
2024-03-12T10:11:16.258Z,1154.00
2024-03-12T10:13:16.513Z,1871.00
2024-03-12T10:14:16.198Z,2151.00
2024-03-12T10:15:16.220Z,2097.00
2024-03-12T10:16:16.399Z,2255.00
2024-03-12T10:17:16.188Z,2956.00
2024-03-12T10:18:16.171Z,3377.00
2024-03-12T10:19:16.580Z,3428.00
2024-03-12T10:20:16.232Z,3085.00
2024-03-12T10:21:16.232Z,2596.00
2024-03-12T10:22:16.265Z,2481.00
2024-03-12T10:23:16.261Z,2841.00
2024-03-12T10:24:16.287Z,3995.00
2024-03-12T10:25:16.288Z,4685.00
2024-03-12T10:26:16.287Z,4743.00
2024-03-12T10:27:16.384Z,4868.00
2024-03-12T10:28:16.377Z,4913.00
2024-03-12T10:29:16.367Z,4536.00
2024-03-12T10:31:16.734Z,3881.00
2024-03-12T10:32:16.379Z,3707.00
2024-03-12T10:33:16.384Z,3737.00
2024-03-12T10:34:16.551Z,3999.00
2024-03-12T10:35:16.401Z,3924.00
2024-03-12T10:36:16.472Z,3425.00
2024-03-12T10:37:16.535Z,3161.00
2024-03-12T10:38:16.428Z,3355.00
2024-03-12T10:39:16.435Z,3631.00
2024-03-12T10:40:16.567Z,4134.00
2024-03-12T10:41:16.447Z,4129.00
2024-03-12T10:42:16.442Z,3877.00
2024-03-12T10:43:16.479Z,4116.00
2024-03-12T10:44:16.458Z,4368.00
2024-03-12T10:45:16.476Z,4901.00
2024-03-12T10:46:16.612Z,5521.00
2024-03-12T10:47:16.481Z,5894.00
2024-03-12T10:48:16.580Z,5339.00
2024-03-12T10:49:16.553Z,4866.00
2024-03-12T10:50:16.460Z,4704.00
2024-03-12T10:51:16.524Z,4535.00
2024-03-12T10:52:16.486Z,4408.00
2024-03-12T10:53:16.482Z,4254.00
2024-03-12T10:54:16.522Z,4339.00
2024-03-12T10:55:16.592Z,3832.00
2024-03-12T10:56:16.773Z,2490.00
2024-03-12T10:58:16.649Z,2138.00
2024-03-12T10:59:16.624Z,2266.00
2024-03-12T11:00:16.605Z,1961.00
2024-03-12T11:01:16.820Z,1876.00
2024-03-12T11:02:16.644Z,1882.00
2024-03-12T11:03:16.661Z,1954.00
2024-03-12T11:04:16.750Z,1928.00
2024-03-12T11:05:16.644Z,2148.00
2024-03-12T11:06:16.734Z,2563.00
2024-03-12T11:07:16.730Z,2835.00
2024-03-12T11:08:16.701Z,2856.00
2024-03-12T11:09:16.671Z,2681.00
2024-03-12T11:10:16.748Z,2730.00
2024-03-12T11:12:16.737Z,2630.00
2024-03-12T11:13:16.841Z,2600.00
2024-03-12T11:14:16.748Z,2736.00
2024-03-12T11:15:16.849Z,2723.00
2024-03-12T11:16:16.884Z,2870.00
2024-03-12T11:17:16.934Z,3190.00
2024-03-12T11:18:16.916Z,3253.00
2024-03-12T11:19:16.913Z,3241.00
2024-03-12T11:20:16.835Z,3439.00
2024-03-12T11:21:16.861Z,3364.00
2024-03-12T11:22:16.962Z,3191.00
2024-03-12T11:23:16.883Z,2781.00
2024-03-12T11:24:16.867Z,2532.00
2024-03-12T11:25:17.094Z,2464.00
2024-03-12T11:26:16.886Z,2248.00
2024-03-12T11:28:16.847Z,2093.00
2024-03-12T11:29:16.870Z,2293.00
2024-03-12T11:30:16.923Z,2523.00
2024-03-12T11:31:17.693Z,2620.00
2024-03-12T11:32:16.970Z,2626.00
2024-03-12T11:33:17.086Z,2601.00
2024-03-12T11:34:17.009Z,2621.00
2024-03-12T11:35:16.985Z,2807.00
2024-03-12T11:36:16.995Z,2929.00
2024-03-12T11:37:17.054Z,2888.00
2024-03-12T11:38:17.435Z,2773.00
2024-03-12T11:39:17.135Z,2566.00
2024-03-12T11:40:17.055Z,2553.00
2024-03-12T11:41:17.111Z,2592.00
2024-03-12T11:42:17.039Z,2727.00
2024-03-12T11:43:17.162Z,2909.00
2024-03-12T11:44:17.209Z,2916.00
2024-03-12T11:45:17.147Z,2814.00
2024-03-12T11:46:17.216Z,2788.00
2024-03-12T11:47:17.182Z,2726.00
2024-03-12T11:48:17.227Z,2706.00
2024-03-12T11:49:17.248Z,2690.00
2024-03-12T11:50:17.188Z,2684.00
2024-03-12T11:51:17.218Z,2739.00
2024-03-12T11:52:17.270Z,2793.00
2024-03-12T11:53:17.254Z,2815.00
2024-03-12T11:55:17.289Z,3063.00
2024-03-12T11:57:17.344Z,3222.00
2024-03-12T11:58:17.389Z,3065.00
2024-03-12T12:00:17.368Z,2930.00
2024-03-12T12:02:17.386Z,3267.00
2024-03-12T12:03:17.365Z,3457.00
2024-03-12T12:04:17.417Z,3618.00
2024-03-12T12:05:17.515Z,3782.00
2024-03-12T12:06:17.392Z,3889.00
2024-03-12T12:08:17.425Z,4194.00
2024-03-12T12:09:17.446Z,4453.00
2024-03-12T12:10:17.622Z,4719.00
2024-03-12T12:11:17.541Z,4797.00
2024-03-12T12:12:17.530Z,4706.00
2024-03-12T12:13:17.669Z,4504.00
2024-03-12T12:14:17.541Z,4265.00
2024-03-12T12:15:17.513Z,3995.00
2024-03-12T12:16:17.621Z,3738.00
2024-03-12T12:17:17.581Z,3559.00
2024-03-12T12:18:17.684Z,3505.00
2024-03-12T12:19:22.184Z,3524.00
2024-03-12T12:20:18.043Z,3574.00
2024-03-12T12:21:17.644Z,3667.00
2024-03-12T12:22:17.765Z,3668.00
2024-03-12T12:23:17.652Z,3570.00
2024-03-12T12:24:17.632Z,3458.00
2024-03-12T12:25:17.684Z,3267.00
2024-03-12T12:26:17.636Z,3071.00
2024-03-12T12:27:17.675Z,2891.00
2024-03-12T12:28:17.704Z,2725.00
2024-03-12T12:29:17.675Z,2591.00
2024-03-12T12:30:17.697Z,2655.00
2024-03-12T12:31:17.917Z,2893.00
2024-03-12T12:32:17.760Z,3154.00
2024-03-12T12:33:17.808Z,3232.00
2024-03-12T12:34:17.863Z,3209.00
2024-03-12T12:35:17.927Z,3309.00
2024-03-12T12:37:18.191Z,3417.00
2024-03-12T12:38:17.832Z,3395.00
2024-03-12T12:39:17.995Z,3519.00
2024-03-12T12:42:43.867Z,2455.00
2024-03-12T12:43:43.867Z,2229.00
2024-03-12T12:44:43.880Z,2052.00
2024-03-12T12:45:43.930Z,1751.00
2024-03-12T12:46:43.893Z,1708.00
2024-03-12T12:47:43.941Z,1818.00
2024-03-12T12:48:44.249Z,1352.00
2024-03-12T12:49:44.011Z,1005.00
2024-03-12T12:50:44.062Z,1026.00
2024-03-12T12:51:44.153Z,1044.00
2024-03-12T12:52:44.148Z,1159.00
2024-03-12T12:53:44.024Z,1310.00
2024-03-12T12:54:44.199Z,1381.00
2024-03-12T12:55:44.063Z,1311.00
2024-03-12T12:56:44.161Z,1242.00
2024-03-12T12:57:44.188Z,1188.00
2024-03-12T12:58:44.093Z,1158.00
2024-03-12T13:00:45.740Z,1003.00
2024-03-12T13:02:44.343Z,719.00
2024-03-12T13:03:44.208Z,677.00
2024-03-12T13:04:44.206Z,601.00
2024-03-12T13:05:44.204Z,544.00
2024-03-12T13:06:44.395Z,606.00
2024-03-12T13:07:44.225Z,753.00
2024-03-12T13:08:44.289Z,982.00
2024-03-12T13:09:44.297Z,1204.00
2024-03-12T13:10:44.380Z,1388.00
2024-03-12T13:12:44.436Z,1604.00
2024-03-12T13:13:44.298Z,1524.00
2024-03-12T13:14:44.317Z,1453.00
2024-03-12T13:15:44.372Z,1439.00
2024-03-12T13:16:44.408Z,1450.00
2024-03-12T13:17:44.435Z,1474.00
2024-03-12T13:18:44.953Z,1519.00
2024-03-12T13:19:44.445Z,1561.00
2024-03-12T13:20:44.443Z,1674.00
2024-03-12T13:21:44.491Z,1762.00
2024-03-12T13:22:45.419Z,1659.00
2024-03-12T13:23:44.466Z,1461.00
2024-03-12T13:24:44.545Z,1407.00
2024-03-12T13:25:44.496Z,1424.00
2024-03-12T13:26:44.478Z,1448.00
2024-03-12T13:27:44.529Z,1614.00
2024-03-12T13:28:44.499Z,1739.00
2024-03-12T13:29:44.563Z,1743.00
2024-03-12T13:30:44.566Z,1778.00
2024-03-12T13:31:44.596Z,1903.00